Airport View

Enter ICAO identifier to see the current METAR for that AWOS.

KFNL for example

KPIT 260051Z 24004KT 10SM FEW080 BKN230 BKN300 22/13 A3001 RMK AO2 SLP164 T02220128

26 Jul 2014 01:02

Phone: 412-472-0145

Other Area AWOS: KAGC - KBVI - KBTP - KAFJ

TAF KPIT 252320Z 2600/2706 25005KT P6SM FEW150 FM260200 00000KT P6SM BKN100 FM262000 22009KT P6SM VCSH BKN050